sensor_id;sensor_type;location;lat;lon;timestamp;P1;durP1;ratioP1;P2;durP2;ratioP2
18748;SDS011;9503;53.560;10.246;2024-02-28T00:01:01;17.23;;;10.13;;
18748;SDS011;9503;53.560;10.246;2024-02-28T00:03:28;17.23;;;10.13;;
18748;SDS011;9503;53.560;10.246;2024-02-28T00:05:56;18.53;;;10.37;;
18748;SDS011;9503;53.560;10.246;2024-02-28T00:08:23;19.57;;;10.73;;
18748;SDS011;9503;53.560;10.246;2024-02-28T00:10:50;17.77;;;10.20;;
18748;SDS011;9503;53.560;10.246;2024-02-28T00:13:16;18.00;;;9.50;;
18748;SDS011;9503;53.560;10.246;2024-02-28T00:15:46;17.07;;;9.87;;
18748;SDS011;9503;53.560;10.246;2024-02-28T00:18:13;19.40;;;11.17;;
18748;SDS011;9503;53.560;10.246;2024-02-28T00:20:39;19.47;;;10.47;;
18748;SDS011;9503;53.560;10.246;2024-02-28T00:23:06;20.50;;;10.90;;
18748;SDS011;9503;53.560;10.246;2024-02-28T00:25:33;20.33;;;10.37;;
18748;SDS011;9503;53.560;10.246;2024-02-28T00:28:00;19.83;;;10.10;;
18748;SDS011;9503;53.560;10.246;2024-02-28T00:30:26;18.43;;;11.10;;
18748;SDS011;9503;53.560;10.246;2024-02-28T00:32:55;19.47;;;10.77;;
18748;SDS011;9503;53.560;10.246;2024-02-28T00:35:21;20.37;;;11.17;;
18748;SDS011;9503;53.560;10.246;2024-02-28T00:37:48;19.53;;;10.47;;
18748;SDS011;9503;53.560;10.246;2024-02-28T00:40:14;19.93;;;10.50;;
18748;SDS011;9503;53.560;10.246;2024-02-28T00:42:41;20.37;;;10.97;;
18748;SDS011;9503;53.560;10.246;2024-02-28T00:45:08;20.33;;;11.37;;
18748;SDS011;9503;53.560;10.246;2024-02-28T00:47:35;18.10;;;10.40;;
18748;SDS011;9503;53.560;10.246;2024-02-28T00:50:04;16.33;;;9.73;;
18748;SDS011;9503;53.560;10.246;2024-02-28T00:52:31;18.97;;;10.63;;
18748;SDS011;9503;53.560;10.246;2024-02-28T00:54:58;18.67;;;11.30;;
18748;SDS011;9503;53.560;10.246;2024-02-28T00:57:25;17.33;;;10.97;;
18748;SDS011;9503;53.560;10.246;2024-02-28T00:59:51;20.73;;;11.27;;
18748;SDS011;9503;53.560;10.246;2024-02-28T01:02:19;16.67;;;10.37;;
18748;SDS011;9503;53.560;10.246;2024-02-28T01:04:46;17.77;;;10.57;;
18748;SDS011;9503;53.560;10.246;2024-02-28T01:07:14;19.43;;;10.70;;
18748;SDS011;9503;53.560;10.246;2024-02-28T01:09:41;16.83;;;10.53;;
18748;SDS011;9503;53.560;10.246;2024-02-28T01:12:07;20.47;;;10.73;;
18748;SDS011;9503;53.560;10.246;2024-02-28T01:14:34;18.27;;;10.67;;
18748;SDS011;9503;53.560;10.246;2024-02-28T01:17:00;18.97;;;11.40;;
18748;SDS011;9503;53.560;10.246;2024-02-28T01:19:27;18.17;;;11.00;;
18748;SDS011;9503;53.560;10.246;2024-02-28T01:21:54;20.47;;;11.67;;
18748;SDS011;9503;53.560;10.246;2024-02-28T01:24:22;20.20;;;11.33;;
18748;SDS011;9503;53.560;10.246;2024-02-28T01:26:48;20.37;;;11.80;;
18748;SDS011;9503;53.560;10.246;2024-02-28T01:29:16;21.07;;;11.70;;
18748;SDS011;9503;53.560;10.246;2024-02-28T01:31:42;19.63;;;11.40;;
18748;SDS011;9503;53.560;10.246;2024-02-28T01:34:09;20.77;;;12.20;;
18748;SDS011;9503;53.560;10.246;2024-02-28T01:36:36;17.40;;;11.17;;
18748;SDS011;9503;53.560;10.246;2024-02-28T01:39:02;22.07;;;12.27;;
18748;SDS011;9503;53.560;10.246;2024-02-28T01:41:30;20.97;;;12.13;;
18748;SDS011;9503;53.560;10.246;2024-02-28T01:43:57;21.17;;;12.07;;
18748;SDS011;9503;53.560;10.246;2024-02-28T01:46:24;21.67;;;12.23;;
18748;SDS011;9503;53.560;10.246;2024-02-28T01:48:52;23.07;;;12.90;;
18748;SDS011;9503;53.560;10.246;2024-02-28T01:51:20;23.90;;;12.83;;
18748;SDS011;9503;53.560;10.246;2024-02-28T01:53:48;22.50;;;12.57;;
18748;SDS011;9503;53.560;10.246;2024-02-28T01:56:16;22.50;;;12.67;;
18748;SDS011;9503;53.560;10.246;2024-02-28T01:58:45;23.10;;;13.50;;
18748;SDS011;9503;53.560;10.246;2024-02-28T02:01:13;32.43;;;15.23;;
18748;SDS011;9503;53.560;10.246;2024-02-28T02:03:41;25.13;;;14.17;;
18748;SDS011;9503;53.560;10.246;2024-02-28T02:06:08;28.83;;;14.63;;
18748;SDS011;9503;53.560;10.246;2024-02-28T02:08:36;27.87;;;14.57;;
18748;SDS011;9503;53.560;10.246;2024-02-28T02:11:03;28.70;;;14.50;;
18748;SDS011;9503;53.560;10.246;2024-02-28T02:13:30;29.63;;;15.57;;
18748;SDS011;9503;53.560;10.246;2024-02-28T02:15:58;26.83;;;14.33;;
18748;SDS011;9503;53.560;10.246;2024-02-28T02:18:25;23.67;;;13.73;;
18748;SDS011;9503;53.560;10.246;2024-02-28T02:20:54;26.87;;;13.67;;
18748;SDS011;9503;53.560;10.246;2024-02-28T02:23:30;29.27;;;14.50;;
18748;SDS011;9503;53.560;10.246;2024-02-28T02:25:56;28.43;;;14.63;;
18748;SDS011;9503;53.560;10.246;2024-02-28T02:28:23;29.60;;;15.50;;
18748;SDS011;9503;53.560;10.246;2024-02-28T02:30:50;27.70;;;14.90;;
18748;SDS011;9503;53.560;10.246;2024-02-28T02:33:16;31.83;;;16.13;;
18748;SDS011;9503;53.560;10.246;2024-02-28T02:35:43;26.90;;;14.40;;
18748;SDS011;9503;53.560;10.246;2024-02-28T02:38:09;28.07;;;14.97;;
18748;SDS011;9503;53.560;10.246;2024-02-28T02:40:37;31.80;;;15.90;;
18748;SDS011;9503;53.560;10.246;2024-02-28T02:43:04;29.53;;;15.07;;
18748;SDS011;9503;53.560;10.246;2024-02-28T02:45:31;33.70;;;16.10;;
18748;SDS011;9503;53.560;10.246;2024-02-28T02:47:57;36.10;;;16.97;;
18748;SDS011;9503;53.560;10.246;2024-02-28T02:50:24;32.70;;;16.20;;
18748;SDS011;9503;53.560;10.246;2024-02-28T02:52:50;31.77;;;15.40;;
18748;SDS011;9503;53.560;10.246;2024-02-28T02:55:17;33.13;;;17.43;;
18748;SDS011;9503;53.560;10.246;2024-02-28T02:57:45;33.67;;;15.83;;
18748;SDS011;9503;53.560;10.246;2024-02-28T03:00:12;38.80;;;17.07;;
18748;SDS011;9503;53.560;10.246;2024-02-28T03:02:38;39.27;;;18.67;;
18748;SDS011;9503;53.560;10.246;2024-02-28T03:05:05;37.57;;;17.93;;
18748;SDS011;9503;53.560;10.246;2024-02-28T03:07:33;39.20;;;16.80;;
18748;SDS011;9503;53.560;10.246;2024-02-28T03:09:59;34.13;;;17.00;;
18748;SDS011;9503;53.560;10.246;2024-02-28T03:12:27;34.40;;;16.13;;
18748;SDS011;9503;53.560;10.246;2024-02-28T03:14:55;34.80;;;17.23;;
18748;SDS011;9503;53.560;10.246;2024-02-28T03:17:22;34.80;;;16.47;;
18748;SDS011;9503;53.560;10.246;2024-02-28T03:19:49;40.90;;;17.97;;
18748;SDS011;9503;53.560;10.246;2024-02-28T03:22:15;35.50;;;16.80;;
18748;SDS011;9503;53.560;10.246;2024-02-28T03:24:42;38.20;;;18.30;;
18748;SDS011;9503;53.560;10.246;2024-02-28T03:27:08;35.27;;;16.77;;
18748;SDS011;9503;53.560;10.246;2024-02-28T03:29:35;38.57;;;16.87;;
18748;SDS011;9503;53.560;10.246;2024-02-28T03:32:04;39.10;;;17.47;;
18748;SDS011;9503;53.560;10.246;2024-02-28T03:34:31;40.30;;;17.43;;
18748;SDS011;9503;53.560;10.246;2024-02-28T03:36:57;35.53;;;15.90;;
18748;SDS011;9503;53.560;10.246;2024-02-28T03:39:24;38.73;;;16.97;;
18748;SDS011;9503;53.560;10.246;2024-02-28T03:41:50;36.53;;;17.03;;
18748;SDS011;9503;53.560;10.246;2024-02-28T03:44:17;36.90;;;16.27;;
18748;SDS011;9503;53.560;10.246;2024-02-28T03:46:44;40.03;;;17.43;;
18748;SDS011;9503;53.560;10.246;2024-02-28T03:49:12;40.63;;;17.13;;
18748;SDS011;9503;53.560;10.246;2024-02-28T03:51:39;36.77;;;16.43;;
18748;SDS011;9503;53.560;10.246;2024-02-28T03:54:06;39.00;;;16.77;;
18748;SDS011;9503;53.560;10.246;2024-02-28T03:56:32;40.70;;;17.30;;
18748;SDS011;9503;53.560;10.246;2024-02-28T03:59:00;38.70;;;16.73;;
18748;SDS011;9503;53.560;10.246;2024-02-28T04:01:27;44.70;;;18.60;;
18748;SDS011;9503;53.560;10.246;2024-02-28T04:03:53;38.67;;;16.10;;
18748;SDS011;9503;53.560;10.246;2024-02-28T04:06:21;38.90;;;16.77;;
18748;SDS011;9503;53.560;10.246;2024-02-28T04:08:48;38.90;;;16.57;;
18748;SDS011;9503;53.560;10.246;2024-02-28T04:11:14;35.13;;;15.47;;
18748;SDS011;9503;53.560;10.246;2024-02-28T04:13:41;41.73;;;17.10;;
18748;SDS011;9503;53.560;10.246;2024-02-28T04:16:08;41.63;;;17.17;;
18748;SDS011;9503;53.560;10.246;2024-02-28T04:18:35;43.90;;;16.70;;
18748;SDS011;9503;53.560;10.246;2024-02-28T04:21:02;38.20;;;17.27;;
18748;SDS011;9503;53.560;10.246;2024-02-28T04:23:30;39.37;;;16.23;;
18748;SDS011;9503;53.560;10.246;2024-02-28T04:25:57;38.37;;;16.57;;
18748;SDS011;9503;53.560;10.246;2024-02-28T04:28:24;41.17;;;16.83;;
18748;SDS011;9503;53.560;10.246;2024-02-28T04:30:50;39.50;;;16.07;;
18748;SDS011;9503;53.560;10.246;2024-02-28T04:33:17;40.30;;;17.60;;
18748;SDS011;9503;53.560;10.246;2024-02-28T04:35:43;39.40;;;16.47;;
18748;SDS011;9503;53.560;10.246;2024-02-28T04:38:10;41.20;;;16.90;;
18748;SDS011;9503;53.560;10.246;2024-02-28T04:40:38;40.53;;;16.80;;
18748;SDS011;9503;53.560;10.246;2024-02-28T04:43:04;38.60;;;16.53;;
18748;SDS011;9503;53.560;10.246;2024-02-28T04:45:31;43.10;;;18.30;;
18748;SDS011;9503;53.560;10.246;2024-02-28T04:47:58;37.83;;;16.17;;
18748;SDS011;9503;53.560;10.246;2024-02-28T04:50:24;39.50;;;16.10;;
18748;SDS011;9503;53.560;10.246;2024-02-28T04:52:51;39.87;;;16.33;;
18748;SDS011;9503;53.560;10.246;2024-02-28T04:55:18;40.27;;;16.50;;
18748;SDS011;9503;53.560;10.246;2024-02-28T04:57:46;42.33;;;17.50;;
18748;SDS011;9503;53.560;10.246;2024-02-28T05:00:12;43.77;;;17.07;;
18748;SDS011;9503;53.560;10.246;2024-02-28T05:02:39;41.47;;;17.17;;
18748;SDS011;9503;53.560;10.246;2024-02-28T05:05:06;42.37;;;17.57;;
18748;SDS011;9503;53.560;10.246;2024-02-28T05:07:33;40.47;;;16.60;;
18748;SDS011;9503;53.560;10.246;2024-02-28T05:09:58;38.37;;;16.17;;
18748;SDS011;9503;53.560;10.246;2024-02-28T05:12:25;38.77;;;16.83;;
18748;SDS011;9503;53.560;10.246;2024-02-28T05:14:53;39.60;;;15.60;;
18748;SDS011;9503;53.560;10.246;2024-02-28T05:17:19;37.80;;;15.50;;
18748;SDS011;9503;53.560;10.246;2024-02-28T05:19:46;35.20;;;15.60;;
18748;SDS011;9503;53.560;10.246;2024-02-28T05:22:12;40.97;;;16.03;;
18748;SDS011;9503;53.560;10.246;2024-02-28T05:24:39;38.77;;;16.50;;
18748;SDS011;9503;53.560;10.246;2024-02-28T05:27:08;33.80;;;14.80;;
18748;SDS011;9503;53.560;10.246;2024-02-28T05:29:35;40.63;;;16.03;;
18748;SDS011;9503;53.560;10.246;2024-02-28T05:32:03;39.83;;;15.13;;
18748;SDS011;9503;53.560;10.246;2024-02-28T05:34:31;36.20;;;15.97;;
18748;SDS011;9503;53.560;10.246;2024-02-28T05:36:57;36.10;;;14.97;;
18748;SDS011;9503;53.560;10.246;2024-02-28T05:39:26;35.97;;;15.37;;
18748;SDS011;9503;53.560;10.246;2024-02-28T05:41:54;38.70;;;16.07;;
18748;SDS011;9503;53.560;10.246;2024-02-28T05:44:20;34.70;;;15.20;;
18748;SDS011;9503;53.560;10.246;2024-02-28T05:46:47;37.37;;;15.57;;
18748;SDS011;9503;53.560;10.246;2024-02-28T05:49:15;30.87;;;14.23;;
18748;SDS011;9503;53.560;10.246;2024-02-28T05:51:42;36.57;;;15.37;;
18748;SDS011;9503;53.560;10.246;2024-02-28T05:54:09;37.83;;;15.33;;
18748;SDS011;9503;53.560;10.246;2024-02-28T05:56:36;30.07;;;12.90;;
18748;SDS011;9503;53.560;10.246;2024-02-28T05:59:03;32.70;;;14.57;;
18748;SDS011;9503;53.560;10.246;2024-02-28T06:01:29;29.43;;;13.43;;
18748;SDS011;9503;53.560;10.246;2024-02-28T06:03:56;29.33;;;12.87;;
18748;SDS011;9503;53.560;10.246;2024-02-28T06:06:24;32.77;;;14.30;;
18748;SDS011;9503;53.560;10.246;2024-02-28T06:08:51;29.83;;;14.23;;
18748;SDS011;9503;53.560;10.246;2024-02-28T06:11:18;29.27;;;13.83;;
18748;SDS011;9503;53.560;10.246;2024-02-28T06:13:44;30.40;;;13.03;;
18748;SDS011;9503;53.560;10.246;2024-02-28T06:16:13;33.23;;;13.73;;
18748;SDS011;9503;53.560;10.246;2024-02-28T06:18:40;28.33;;;13.43;;
18748;SDS011;9503;53.560;10.246;2024-02-28T06:21:07;25.97;;;12.37;;
18748;SDS011;9503;53.560;10.246;2024-02-28T06:23:35;30.70;;;14.47;;
18748;SDS011;9503;53.560;10.246;2024-02-28T06:26:01;26.87;;;13.10;;
18748;SDS011;9503;53.560;10.246;2024-02-28T06:28:28;23.97;;;12.07;;
18748;SDS011;9503;53.560;10.246;2024-02-28T06:30:55;24.93;;;12.27;;
18748;SDS011;9503;53.560;10.246;2024-02-28T06:33:21;24.83;;;11.03;;
18748;SDS011;9503;53.560;10.246;2024-02-28T06:35:48;28.23;;;12.17;;
18748;SDS011;9503;53.560;10.246;2024-02-28T06:38:14;26.13;;;11.67;;
18748;SDS011;9503;53.560;10.246;2024-02-28T06:40:42;28.07;;;12.63;;
18748;SDS011;9503;53.560;10.246;2024-02-28T06:43:09;25.37;;;12.30;;
18748;SDS011;9503;53.560;10.246;2024-02-28T06:45:35;25.53;;;11.67;;
18748;SDS011;9503;53.560;10.246;2024-02-28T06:48:02;27.43;;;12.30;;
18748;SDS011;9503;53.560;10.246;2024-02-28T06:50:29;26.70;;;12.13;;
18748;SDS011;9503;53.560;10.246;2024-02-28T06:52:56;25.73;;;11.87;;
18748;SDS011;9503;53.560;10.246;2024-02-28T06:55:22;24.53;;;11.77;;
18748;SDS011;9503;53.560;10.246;2024-02-28T06:57:51;24.10;;;11.20;;
18748;SDS011;9503;53.560;10.246;2024-02-28T07:00:18;25.57;;;12.67;;
18748;SDS011;9503;53.560;10.246;2024-02-28T07:02:45;28.63;;;12.97;;
18748;SDS011;9503;53.560;10.246;2024-02-28T07:05:12;24.33;;;11.77;;
18748;SDS011;9503;53.560;10.246;2024-02-28T07:07:38;26.87;;;11.93;;
18748;SDS011;9503;53.560;10.246;2024-02-28T07:10:05;29.50;;;12.33;;
18748;SDS011;9503;53.560;10.246;2024-02-28T07:12:36;24.53;;;12.30;;
18748;SDS011;9503;53.560;10.246;2024-02-28T07:15:04;25.33;;;12.27;;
18748;SDS011;9503;53.560;10.246;2024-02-28T07:17:31;23.30;;;11.47;;
18748;SDS011;9503;53.560;10.246;2024-02-28T07:19:58;24.33;;;12.17;;
18748;SDS011;9503;53.560;10.246;2024-02-28T07:22:24;23.93;;;12.30;;
18748;SDS011;9503;53.560;10.246;2024-02-28T07:24:51;21.10;;;11.03;;
18748;SDS011;9503;53.560;10.246;2024-02-28T07:27:18;21.43;;;11.10;;
18748;SDS011;9503;53.560;10.246;2024-02-28T07:29:44;20.13;;;10.50;;
18748;SDS011;9503;53.560;10.246;2024-02-28T07:32:12;22.10;;;11.37;;
18748;SDS011;9503;53.560;10.246;2024-02-28T07:34:39;24.40;;;11.20;;
18748;SDS011;9503;53.560;10.246;2024-02-28T07:37:06;22.23;;;11.17;;
18748;SDS011;9503;53.560;10.246;2024-02-28T07:39:32;22.23;;;11.37;;
18748;SDS011;9503;53.560;10.246;2024-02-28T07:41:59;23.57;;;11.77;;
18748;SDS011;9503;53.560;10.246;2024-02-28T07:44:26;21.37;;;10.53;;
18748;SDS011;9503;53.560;10.246;2024-02-28T07:46:55;26.70;;;12.70;;
18748;SDS011;9503;53.560;10.246;2024-02-28T07:49:24;22.93;;;11.13;;
18748;SDS011;9503;53.560;10.246;2024-02-28T07:51:50;22.00;;;11.40;;
18748;SDS011;9503;53.560;10.246;2024-02-28T07:54:17;18.73;;;10.30;;
18748;SDS011;9503;53.560;10.246;2024-02-28T07:56:44;20.77;;;10.83;;
18748;SDS011;9503;53.560;10.246;2024-02-28T07:59:10;23.07;;;11.13;;
18748;SDS011;9503;53.560;10.246;2024-02-28T08:01:37;22.77;;;10.80;;
18748;SDS011;9503;53.560;10.246;2024-02-28T08:04:04;28.00;;;11.77;;
18748;SDS011;9503;53.560;10.246;2024-02-28T08:06:32;23.30;;;10.50;;
18748;SDS011;9503;53.560;10.246;2024-02-28T08:08:59;22.30;;;10.63;;
18748;SDS011;9503;53.560;10.246;2024-02-28T08:11:26;23.47;;;10.97;;
18748;SDS011;9503;53.560;10.246;2024-02-28T08:13:53;22.70;;;10.97;;
18748;SDS011;9503;53.560;10.246;2024-02-28T08:16:19;24.07;;;11.00;;
18748;SDS011;9503;53.560;10.246;2024-02-28T08:18:46;25.20;;;12.07;;
18748;SDS011;9503;53.560;10.246;2024-02-28T08:21:12;21.87;;;11.07;;
18748;SDS011;9503;53.560;10.246;2024-02-28T08:23:40;23.90;;;10.20;;
18748;SDS011;9503;53.560;10.246;2024-02-28T08:26:07;19.87;;;11.03;;
18748;SDS011;9503;53.560;10.246;2024-02-28T08:28:34;23.63;;;11.47;;
18748;SDS011;9503;53.560;10.246;2024-02-28T08:31:00;22.70;;;11.03;;
18748;SDS011;9503;53.560;10.246;2024-02-28T08:33:27;22.33;;;11.70;;
18748;SDS011;9503;53.560;10.246;2024-02-28T08:35:53;22.67;;;11.50;;
18748;SDS011;9503;53.560;10.246;2024-02-28T08:38:20;24.60;;;11.13;;
18748;SDS011;9503;53.560;10.246;2024-02-28T08:40:48;25.20;;;11.83;;
18748;SDS011;9503;53.560;10.246;2024-02-28T08:43:15;27.17;;;12.43;;
18748;SDS011;9503;53.560;10.246;2024-02-28T08:45:41;25.90;;;12.17;;
18748;SDS011;9503;53.560;10.246;2024-02-28T08:48:08;24.83;;;12.03;;
18748;SDS011;9503;53.560;10.246;2024-02-28T08:50:34;27.30;;;13.53;;
18748;SDS011;9503;53.560;10.246;2024-02-28T08:53:01;28.10;;;12.30;;
18748;SDS011;9503;53.560;10.246;2024-02-28T08:55:28;23.87;;;12.10;;
18748;SDS011;9503;53.560;10.246;2024-02-28T08:57:57;25.80;;;12.67;;
18748;SDS011;9503;53.560;10.246;2024-02-28T09:00:23;24.30;;;12.33;;
18748;SDS011;9503;53.560;10.246;2024-02-28T09:02:50;28.13;;;12.77;;
18748;SDS011;9503;53.560;10.246;2024-02-28T09:05:17;26.57;;;11.97;;
18748;SDS011;9503;53.560;10.246;2024-02-28T09:07:43;29.90;;;13.73;;
18748;SDS011;9503;53.560;10.246;2024-02-28T09:10:11;29.63;;;13.97;;
18748;SDS011;9503;53.560;10.246;2024-02-28T09:12:38;29.07;;;13.80;;
18748;SDS011;9503;53.560;10.246;2024-02-28T09:15:06;30.23;;;13.97;;
18748;SDS011;9503;53.560;10.246;2024-02-28T09:17:33;32.93;;;13.80;;
18748;SDS011;9503;53.560;10.246;2024-02-28T09:20:00;30.53;;;14.33;;
18748;SDS011;9503;53.560;10.246;2024-02-28T09:22:29;33.83;;;13.53;;
18748;SDS011;9503;53.560;10.246;2024-02-28T09:24:55;32.37;;;14.13;;
18748;SDS011;9503;53.560;10.246;2024-02-28T09:27:22;35.30;;;15.07;;
18748;SDS011;9503;53.560;10.246;2024-02-28T09:29:49;33.73;;;17.03;;
18748;SDS011;9503;53.560;10.246;2024-02-28T09:32:17;32.10;;;16.00;;
18748;SDS011;9503;53.560;10.246;2024-02-28T09:34:44;33.53;;;15.67;;
18748;SDS011;9503;53.560;10.246;2024-02-28T09:37:11;35.63;;;15.60;;
18748;SDS011;9503;53.560;10.246;2024-02-28T09:39:37;34.03;;;14.93;;
18748;SDS011;9503;53.560;10.246;2024-02-28T09:42:05;32.30;;;16.53;;
18748;SDS011;9503;53.560;10.246;2024-02-28T09:44:33;33.77;;;15.47;;
18748;SDS011;9503;53.560;10.246;2024-02-28T09:47:00;31.40;;;14.70;;
18748;SDS011;9503;53.560;10.246;2024-02-28T09:49:28;29.60;;;14.10;;
18748;SDS011;9503;53.560;10.246;2024-02-28T09:51:57;28.47;;;14.63;;
18748;SDS011;9503;53.560;10.246;2024-02-28T09:54:25;32.20;;;15.90;;
18748;SDS011;9503;53.560;10.246;2024-02-28T09:56:51;32.33;;;15.57;;
18748;SDS011;9503;53.560;10.246;2024-02-28T09:59:18;33.53;;;16.23;;
18748;SDS011;9503;53.560;10.246;2024-02-28T10:01:47;31.97;;;15.50;;
18748;SDS011;9503;53.560;10.246;2024-02-28T10:04:19;32.07;;;15.17;;
18748;SDS011;9503;53.560;10.246;2024-02-28T10:06:48;30.67;;;15.13;;
18748;SDS011;9503;53.560;10.246;2024-02-28T10:09:15;30.83;;;15.33;;
18748;SDS011;9503;53.560;10.246;2024-02-28T10:11:41;30.13;;;16.37;;
18748;SDS011;9503;53.560;10.246;2024-02-28T10:14:09;35.30;;;17.63;;
18748;SDS011;9503;53.560;10.246;2024-02-28T10:16:36;29.93;;;15.07;;
18748;SDS011;9503;53.560;10.246;2024-02-28T10:19:02;32.43;;;16.17;;
18748;SDS011;9503;53.560;10.246;2024-02-28T10:21:31;31.13;;;15.97;;
18748;SDS011;9503;53.560;10.246;2024-02-28T10:24:00;36.27;;;15.90;;
18748;SDS011;9503;53.560;10.246;2024-02-28T10:26:26;34.13;;;16.23;;
18748;SDS011;9503;53.560;10.246;2024-02-28T10:28:55;28.00;;;15.37;;
18748;SDS011;9503;53.560;10.246;2024-02-28T10:31:21;32.07;;;14.97;;
18748;SDS011;9503;53.560;10.246;2024-02-28T10:33:48;33.33;;;15.80;;
18748;SDS011;9503;53.560;10.246;2024-02-28T10:36:16;32.40;;;15.20;;
18748;SDS011;9503;53.560;10.246;2024-02-28T10:38:43;29.27;;;14.57;;
18748;SDS011;9503;53.560;10.246;2024-02-28T10:41:11;30.40;;;15.10;;
18748;SDS011;9503;53.560;10.246;2024-02-28T10:43:39;29.63;;;15.77;;
18748;SDS011;9503;53.560;10.246;2024-02-28T10:46:07;30.47;;;15.53;;
18748;SDS011;9503;53.560;10.246;2024-02-28T10:48:35;32.77;;;14.93;;
18748;SDS011;9503;53.560;10.246;2024-02-28T10:51:02;32.27;;;15.87;;
18748;SDS011;9503;53.560;10.246;2024-02-28T10:53:31;32.87;;;16.03;;
18748;SDS011;9503;53.560;10.246;2024-02-28T10:56:02;32.80;;;16.43;;
18748;SDS011;9503;53.560;10.246;2024-02-28T10:58:34;30.43;;;14.33;;
18748;SDS011;9503;53.560;10.246;2024-02-28T11:01:01;29.33;;;15.23;;
18748;SDS011;9503;53.560;10.246;2024-02-28T11:03:29;29.97;;;15.57;;
18748;SDS011;9503;53.560;10.246;2024-02-28T11:05:56;30.43;;;14.80;;
18748;SDS011;9503;53.560;10.246;2024-02-28T11:08:23;29.20;;;13.23;;
18748;SDS011;9503;53.560;10.246;2024-02-28T11:10:54;25.00;;;13.23;;
18748;SDS011;9503;53.560;10.246;2024-02-28T11:13:21;24.57;;;12.60;;
18748;SDS011;9503;53.560;10.246;2024-02-28T11:15:50;23.57;;;12.87;;
18748;SDS011;9503;53.560;10.246;2024-02-28T11:18:16;23.20;;;12.73;;
18748;SDS011;9503;53.560;10.246;2024-02-28T11:20:43;22.70;;;12.67;;
18748;SDS011;9503;53.560;10.246;2024-02-28T11:23:11;24.87;;;12.07;;
18748;SDS011;9503;53.560;10.246;2024-02-28T11:25:39;27.43;;;13.07;;
18748;SDS011;9503;53.560;10.246;2024-02-28T11:28:06;24.63;;;12.13;;
18748;SDS011;9503;53.560;10.246;2024-02-28T11:30:33;25.23;;;12.80;;
18748;SDS011;9503;53.560;10.246;2024-02-28T11:33:01;25.03;;;12.10;;
18748;SDS011;9503;53.560;10.246;2024-02-28T11:35:27;26.37;;;13.20;;
18748;SDS011;9503;53.560;10.246;2024-02-28T11:37:54;27.67;;;12.53;;
18748;SDS011;9503;53.560;10.246;2024-02-28T11:40:22;26.43;;;12.60;;
18748;SDS011;9503;53.560;10.246;2024-02-28T11:42:50;23.17;;;12.33;;
18748;SDS011;9503;53.560;10.246;2024-02-28T11:45:16;27.67;;;13.10;;
18748;SDS011;9503;53.560;10.246;2024-02-28T11:47:44;29.50;;;13.33;;
18748;SDS011;9503;53.560;10.246;2024-02-28T11:50:12;26.77;;;12.67;;
18748;SDS011;9503;53.560;10.246;2024-02-28T11:52:39;27.27;;;13.00;;
18748;SDS011;9503;53.560;10.246;2024-02-28T11:55:06;23.43;;;11.83;;
18748;SDS011;9503;53.560;10.246;2024-02-28T11:57:33;24.67;;;12.57;;
18748;SDS011;9503;53.560;10.246;2024-02-28T12:00:03;26.07;;;13.50;;
18748;SDS011;9503;53.560;10.246;2024-02-28T12:02:31;28.30;;;12.57;;
18748;SDS011;9503;53.560;10.246;2024-02-28T12:05:00;29.03;;;13.33;;
18748;SDS011;9503;53.560;10.246;2024-02-28T12:07:28;27.03;;;13.77;;
18748;SDS011;9503;53.560;10.246;2024-02-28T12:09:55;29.40;;;14.50;;
18748;SDS011;9503;53.560;10.246;2024-02-28T12:12:22;28.23;;;14.37;;
18748;SDS011;9503;53.560;10.246;2024-02-28T12:14:49;22.90;;;12.43;;
18748;SDS011;9503;53.560;10.246;2024-02-28T12:17:16;30.43;;;14.33;;
18748;SDS011;9503;53.560;10.246;2024-02-28T12:19:43;27.93;;;13.60;;
18748;SDS011;9503;53.560;10.246;2024-02-28T12:22:10;26.57;;;13.37;;
18748;SDS011;9503;53.560;10.246;2024-02-28T12:24:38;29.37;;;13.23;;
18748;SDS011;9503;53.560;10.246;2024-02-28T12:27:05;29.30;;;13.23;;
18748;SDS011;9503;53.560;10.246;2024-02-28T12:29:32;33.33;;;13.90;;
18748;SDS011;9503;53.560;10.246;2024-02-28T12:31:58;25.60;;;12.83;;
18748;SDS011;9503;53.560;10.246;2024-02-28T12:34:25;28.73;;;13.77;;
18748;SDS011;9503;53.560;10.246;2024-02-28T12:36:52;25.43;;;12.87;;
18748;SDS011;9503;53.560;10.246;2024-02-28T12:39:19;29.90;;;13.80;;
18748;SDS011;9503;53.560;10.246;2024-02-28T12:41:49;29.13;;;13.73;;
18748;SDS011;9503;53.560;10.246;2024-02-28T12:44:15;27.50;;;12.83;;
18748;SDS011;9503;53.560;10.246;2024-02-28T12:46:42;28.97;;;13.03;;
18748;SDS011;9503;53.560;10.246;2024-02-28T12:49:09;28.10;;;13.90;;
18748;SDS011;9503;53.560;10.246;2024-02-28T12:51:36;24.03;;;12.70;;
18748;SDS011;9503;53.560;10.246;2024-02-28T12:54:03;22.40;;;12.93;;
18748;SDS011;9503;53.560;10.246;2024-02-28T12:56:29;27.77;;;12.50;;
18748;SDS011;9503;53.560;10.246;2024-02-28T12:58:57;25.17;;;12.13;;
18748;SDS011;9503;53.560;10.246;2024-02-28T13:01:24;26.30;;;13.00;;
18748;SDS011;9503;53.560;10.246;2024-02-28T13:03:51;23.30;;;11.83;;
18748;SDS011;9503;53.560;10.246;2024-02-28T13:06:18;22.87;;;12.70;;
18748;SDS011;9503;53.560;10.246;2024-02-28T13:08:44;23.20;;;10.97;;
18748;SDS011;9503;53.560;10.246;2024-02-28T13:11:16;24.20;;;12.00;;
18748;SDS011;9503;53.560;10.246;2024-02-28T13:13:44;25.57;;;12.27;;
18748;SDS011;9503;53.560;10.246;2024-02-28T13:16:12;30.43;;;13.20;;
18748;SDS011;9503;53.560;10.246;2024-02-28T13:18:38;25.73;;;13.10;;
18748;SDS011;9503;53.560;10.246;2024-02-28T13:21:05;32.23;;;14.17;;
18748;SDS011;9503;53.560;10.246;2024-02-28T13:23:32;28.27;;;12.87;;
18748;SDS011;9503;53.560;10.246;2024-02-28T13:25:58;33.10;;;14.53;;
18748;SDS011;9503;53.560;10.246;2024-02-28T13:28:28;25.67;;;12.30;;
18748;SDS011;9503;53.560;10.246;2024-02-28T13:30:55;26.33;;;13.47;;
18748;SDS011;9503;53.560;10.246;2024-02-28T13:33:24;28.80;;;13.20;;
18748;SDS011;9503;53.560;10.246;2024-02-28T13:35:51;26.93;;;13.97;;
18748;SDS011;9503;53.560;10.246;2024-02-28T13:38:18;26.97;;;13.77;;
18748;SDS011;9503;53.560;10.246;2024-02-28T13:40:46;26.50;;;13.70;;
18748;SDS011;9503;53.560;10.246;2024-02-28T13:43:12;26.87;;;13.00;;
18748;SDS011;9503;53.560;10.246;2024-02-28T13:45:39;27.50;;;14.13;;
18748;SDS011;9503;53.560;10.246;2024-02-28T13:48:14;30.47;;;13.53;;
18748;SDS011;9503;53.560;10.246;2024-02-28T13:50:43;28.30;;;13.17;;
18748;SDS011;9503;53.560;10.246;2024-02-28T13:53:10;25.30;;;13.23;;
18748;SDS011;9503;53.560;10.246;2024-02-28T13:55:37;29.30;;;13.97;;
18748;SDS011;9503;53.560;10.246;2024-02-28T13:58:04;29.23;;;14.43;;
18748;SDS011;9503;53.560;10.246;2024-02-28T14:00:31;28.00;;;14.03;;
18748;SDS011;9503;53.560;10.246;2024-02-28T14:02:59;31.27;;;14.27;;
18748;SDS011;9503;53.560;10.246;2024-02-28T14:05:26;25.80;;;12.20;;
18748;SDS011;9503;53.560;10.246;2024-02-28T14:07:54;28.13;;;12.93;;
18748;SDS011;9503;53.560;10.246;2024-02-28T14:10:20;26.37;;;13.37;;
18748;SDS011;9503;53.560;10.246;2024-02-28T14:12:47;27.93;;;12.97;;
18748;SDS011;9503;53.560;10.246;2024-02-28T14:15:17;24.03;;;12.03;;
18748;SDS011;9503;53.560;10.246;2024-02-28T14:17:44;25.73;;;13.47;;
18748;SDS011;9503;53.560;10.246;2024-02-28T14:20:10;26.17;;;12.80;;